sensor_id;sensor_type;location;lat;lon;timestamp;P1;durP1;ratioP1;P2;durP2;ratioP2
13720;SDS011;6932;51.438;5.470;2022-08-21T00:00:18;6.33;;;3.50;;
13720;SDS011;6932;51.438;5.470;2022-08-21T00:02:52;6.83;;;3.87;;
13720;SDS011;6932;51.438;5.470;2022-08-21T00:05:26;5.87;;;3.30;;
13720;SDS011;6932;51.438;5.470;2022-08-21T00:07:54;6.07;;;3.53;;
13720;SDS011;6932;51.438;5.470;2022-08-21T00:10:20;6.00;;;3.60;;
13720;SDS011;6932;51.438;5.470;2022-08-21T00:12:48;4.97;;;3.20;;
13720;SDS011;6932;51.438;5.470;2022-08-21T00:15:16;6.17;;;3.33;;
13720;SDS011;6932;51.438;5.470;2022-08-21T00:17:47;7.73;;;3.90;;
13720;SDS011;6932;51.438;5.470;2022-08-21T00:20:14;8.47;;;3.80;;
13720;SDS011;6932;51.438;5.470;2022-08-21T00:22:41;5.03;;;3.70;;
13720;SDS011;6932;51.438;5.470;2022-08-21T00:25:07;8.40;;;4.10;;
13720;SDS011;6932;51.438;5.470;2022-08-21T00:27:35;6.13;;;3.63;;
13720;SDS011;6932;51.438;5.470;2022-08-21T00:30:02;4.77;;;3.70;;
13720;SDS011;6932;51.438;5.470;2022-08-21T00:32:31;6.00;;;3.80;;
13720;SDS011;6932;51.438;5.470;2022-08-21T00:34:57;6.67;;;4.00;;
13720;SDS011;6932;51.438;5.470;2022-08-21T00:37:23;6.07;;;3.60;;
13720;SDS011;6932;51.438;5.470;2022-08-21T00:39:49;5.97;;;3.93;;
13720;SDS011;6932;51.438;5.470;2022-08-21T00:42:15;6.83;;;4.00;;
13720;SDS011;6932;51.438;5.470;2022-08-21T00:44:43;5.97;;;3.80;;
13720;SDS011;6932;51.438;5.470;2022-08-21T00:47:11;8.30;;;4.20;;
13720;SDS011;6932;51.438;5.470;2022-08-21T00:49:37;6.33;;;4.20;;
13720;SDS011;6932;51.438;5.470;2022-08-21T00:52:05;7.90;;;4.07;;
13720;SDS011;6932;51.438;5.470;2022-08-21T00:54:35;7.43;;;4.23;;
13720;SDS011;6932;51.438;5.470;2022-08-21T00:57:07;6.67;;;3.83;;
13720;SDS011;6932;51.438;5.470;2022-08-21T00:59:51;7.10;;;4.40;;
13720;SDS011;6932;51.438;5.470;2022-08-21T01:02:21;6.60;;;4.33;;
13720;SDS011;6932;51.438;5.470;2022-08-21T01:04:47;9.03;;;4.90;;
13720;SDS011;6932;51.438;5.470;2022-08-21T01:07:14;10.40;;;4.67;;
13720;SDS011;6932;51.438;5.470;2022-08-21T01:09:40;9.13;;;4.80;;
13720;SDS011;6932;51.438;5.470;2022-08-21T01:12:09;7.17;;;4.40;;
13720;SDS011;6932;51.438;5.470;2022-08-21T01:14:36;7.80;;;4.73;;
13720;SDS011;6932;51.438;5.470;2022-08-21T01:17:04;6.50;;;4.67;;
13720;SDS011;6932;51.438;5.470;2022-08-21T01:19:30;7.27;;;4.63;;
13720;SDS011;6932;51.438;5.470;2022-08-21T01:21:56;7.50;;;4.50;;
13720;SDS011;6932;51.438;5.470;2022-08-21T01:24:24;8.27;;;4.90;;
13720;SDS011;6932;51.438;5.470;2022-08-21T01:26:50;7.43;;;4.60;;
13720;SDS011;6932;51.438;5.470;2022-08-21T01:31:59;7.60;;;5.00;;
13720;SDS011;6932;51.438;5.470;2022-08-21T01:34:34;7.07;;;4.93;;
13720;SDS011;6932;51.438;5.470;2022-08-21T01:37:06;6.97;;;4.70;;
13720;SDS011;6932;51.438;5.470;2022-08-21T01:39:32;7.80;;;4.77;;
13720;SDS011;6932;51.438;5.470;2022-08-21T01:41:59;6.17;;;4.40;;
13720;SDS011;6932;51.438;5.470;2022-08-21T01:44:25;8.63;;;4.97;;
13720;SDS011;6932;51.438;5.470;2022-08-21T01:46:53;7.73;;;4.93;;
13720;SDS011;6932;51.438;5.470;2022-08-21T01:49:22;7.50;;;4.63;;
13720;SDS011;6932;51.438;5.470;2022-08-21T01:51:48;6.40;;;4.57;;
13720;SDS011;6932;51.438;5.470;2022-08-21T01:54:13;8.50;;;4.77;;
13720;SDS011;6932;51.438;5.470;2022-08-21T01:56:44;7.50;;;4.90;;
13720;SDS011;6932;51.438;5.470;2022-08-21T01:59:14;8.23;;;4.90;;
13720;SDS011;6932;51.438;5.470;2022-08-21T02:01:41;7.13;;;4.43;;
13720;SDS011;6932;51.438;5.470;2022-08-21T02:04:08;6.00;;;4.80;;
13720;SDS011;6932;51.438;5.470;2022-08-21T02:06:35;7.40;;;4.90;;
13720;SDS011;6932;51.438;5.470;2022-08-21T02:09:05;7.50;;;4.70;;
13720;SDS011;6932;51.438;5.470;2022-08-21T02:11:35;6.00;;;4.53;;
13720;SDS011;6932;51.438;5.470;2022-08-21T02:14:05;7.67;;;4.73;;
13720;SDS011;6932;51.438;5.470;2022-08-21T02:16:39;6.83;;;4.93;;
13720;SDS011;6932;51.438;5.470;2022-08-21T02:19:07;7.70;;;5.00;;
13720;SDS011;6932;51.438;5.470;2022-08-21T02:21:34;10.50;;;5.30;;
13720;SDS011;6932;51.438;5.470;2022-08-21T02:24:00;6.83;;;4.80;;
13720;SDS011;6932;51.438;5.470;2022-08-21T02:26:26;6.83;;;5.00;;
13720;SDS011;6932;51.438;5.470;2022-08-21T02:28:52;8.43;;;5.37;;
13720;SDS011;6932;51.438;5.470;2022-08-21T02:31:18;8.67;;;5.40;;
13720;SDS011;6932;51.438;5.470;2022-08-21T02:33:44;7.10;;;5.20;;
13720;SDS011;6932;51.438;5.470;2022-08-21T02:36:10;9.63;;;5.70;;
13720;SDS011;6932;51.438;5.470;2022-08-21T02:38:39;11.23;;;5.93;;
13720;SDS011;6932;51.438;5.470;2022-08-21T02:41:07;9.23;;;5.87;;
13720;SDS011;6932;51.438;5.470;2022-08-21T02:43:39;8.60;;;5.57;;
13720;SDS011;6932;51.438;5.470;2022-08-21T02:46:06;8.73;;;5.67;;
13720;SDS011;6932;51.438;5.470;2022-08-21T02:48:34;8.67;;;5.40;;
13720;SDS011;6932;51.438;5.470;2022-08-21T02:51:04;8.63;;;5.37;;
13720;SDS011;6932;51.438;5.470;2022-08-21T02:53:36;8.03;;;5.20;;
13720;SDS011;6932;51.438;5.470;2022-08-21T02:56:05;8.87;;;5.60;;
13720;SDS011;6932;51.438;5.470;2022-08-21T02:58:35;9.30;;;5.77;;
13720;SDS011;6932;51.438;5.470;2022-08-21T03:01:06;7.97;;;5.77;;
13720;SDS011;6932;51.438;5.470;2022-08-21T03:03:34;8.57;;;5.33;;
13720;SDS011;6932;51.438;5.470;2022-08-21T03:06:03;8.00;;;5.57;;
13720;SDS011;6932;51.438;5.470;2022-08-21T03:08:31;9.00;;;5.23;;
13720;SDS011;6932;51.438;5.470;2022-08-21T03:10:57;8.00;;;5.30;;
13720;SDS011;6932;51.438;5.470;2022-08-21T03:13:24;8.50;;;5.20;;
13720;SDS011;6932;51.438;5.470;2022-08-21T03:15:50;9.40;;;5.30;;
13720;SDS011;6932;51.438;5.470;2022-08-21T03:18:16;8.83;;;5.10;;
13720;SDS011;6932;51.438;5.470;2022-08-21T03:20:42;7.07;;;5.17;;
13720;SDS011;6932;51.438;5.470;2022-08-21T03:23:10;10.33;;;5.40;;
13720;SDS011;6932;51.438;5.470;2022-08-21T03:25:37;8.77;;;5.20;;
13720;SDS011;6932;51.438;5.470;2022-08-21T03:28:06;8.43;;;5.03;;
13720;SDS011;6932;51.438;5.470;2022-08-21T03:30:36;7.70;;;5.13;;
13720;SDS011;6932;51.438;5.470;2022-08-21T03:33:02;8.63;;;5.10;;
13720;SDS011;6932;51.438;5.470;2022-08-21T03:35:28;8.20;;;5.10;;
13720;SDS011;6932;51.438;5.470;2022-08-21T03:37:55;8.13;;;4.80;;
13720;SDS011;6932;51.438;5.470;2022-08-21T03:40:21;9.53;;;4.70;;
13720;SDS011;6932;51.438;5.470;2022-08-21T03:42:49;9.97;;;5.13;;
13720;SDS011;6932;51.438;5.470;2022-08-21T03:45:16;10.30;;;5.20;;
13720;SDS011;6932;51.438;5.470;2022-08-21T03:47:57;6.80;;;4.50;;
13720;SDS011;6932;51.438;5.470;2022-08-21T03:50:26;7.90;;;4.77;;
13720;SDS011;6932;51.438;5.470;2022-08-21T03:52:55;9.40;;;4.90;;
13720;SDS011;6932;51.438;5.470;2022-08-21T03:55:22;8.73;;;4.93;;
13720;SDS011;6932;51.438;5.470;2022-08-21T03:57:49;7.93;;;5.10;;
13720;SDS011;6932;51.438;5.470;2022-08-21T04:00:16;8.27;;;4.97;;
13720;SDS011;6932;51.438;5.470;2022-08-21T04:02:44;7.07;;;4.80;;
13720;SDS011;6932;51.438;5.470;2022-08-21T04:05:11;7.47;;;4.90;;
13720;SDS011;6932;51.438;5.470;2022-08-21T04:07:39;8.87;;;5.00;;
13720;SDS011;6932;51.438;5.470;2022-08-21T04:10:05;9.70;;;5.13;;
13720;SDS011;6932;51.438;5.470;2022-08-21T04:12:32;7.83;;;4.80;;
13720;SDS011;6932;51.438;5.470;2022-08-21T04:14:58;10.17;;;4.90;;
13720;SDS011;6932;51.438;5.470;2022-08-21T04:17:24;9.17;;;4.90;;
13720;SDS011;6932;51.438;5.470;2022-08-21T04:19:50;7.87;;;4.43;;
13720;SDS011;6932;51.438;5.470;2022-08-21T04:22:16;9.50;;;4.53;;
13720;SDS011;6932;51.438;5.470;2022-08-21T04:24:42;8.53;;;4.77;;
13720;SDS011;6932;51.438;5.470;2022-08-21T04:27:07;8.80;;;4.60;;
13720;SDS011;6932;51.438;5.470;2022-08-21T04:29:33;8.27;;;4.60;;
13720;SDS011;6932;51.438;5.470;2022-08-21T04:31:59;7.37;;;4.40;;
13720;SDS011;6932;51.438;5.470;2022-08-21T04:34:25;7.70;;;4.40;;
13720;SDS011;6932;51.438;5.470;2022-08-21T04:36:50;6.63;;;4.40;;
13720;SDS011;6932;51.438;5.470;2022-08-21T04:39:16;7.03;;;4.17;;
13720;SDS011;6932;51.438;5.470;2022-08-21T04:41:42;7.80;;;4.07;;
13720;SDS011;6932;51.438;5.470;2022-08-21T04:44:08;6.63;;;4.13;;
13720;SDS011;6932;51.438;5.470;2022-08-21T04:46:33;8.50;;;4.17;;
13720;SDS011;6932;51.438;5.470;2022-08-21T04:49:00;6.77;;;3.90;;
13720;SDS011;6932;51.438;5.470;2022-08-21T04:51:27;6.73;;;4.00;;
13720;SDS011;6932;51.438;5.470;2022-08-21T04:54:07;7.57;;;4.00;;
13720;SDS011;6932;51.438;5.470;2022-08-21T04:57:01;8.30;;;4.00;;
13720;SDS011;6932;51.438;5.470;2022-08-21T04:59:33;8.77;;;4.43;;
13720;SDS011;6932;51.438;5.470;2022-08-21T05:02:05;7.37;;;3.93;;
13720;SDS011;6932;51.438;5.470;2022-08-21T05:04:33;8.33;;;4.07;;
13720;SDS011;6932;51.438;5.470;2022-08-21T05:07:03;6.03;;;3.67;;
13720;SDS011;6932;51.438;5.470;2022-08-21T05:09:35;9.10;;;4.40;;
13720;SDS011;6932;51.438;5.470;2022-08-21T05:12:03;7.30;;;4.27;;
13720;SDS011;6932;51.438;5.470;2022-08-21T05:14:30;6.80;;;4.40;;
13720;SDS011;6932;51.438;5.470;2022-08-21T05:16:56;7.43;;;3.90;;
13720;SDS011;6932;51.438;5.470;2022-08-21T05:19:22;7.53;;;4.07;;
13720;SDS011;6932;51.438;5.470;2022-08-21T05:21:48;5.37;;;3.90;;
13720;SDS011;6932;51.438;5.470;2022-08-21T05:24:14;7.20;;;4.00;;
13720;SDS011;6932;51.438;5.470;2022-08-21T05:26:41;6.47;;;3.90;;
13720;SDS011;6932;51.438;5.470;2022-08-21T05:29:07;8.63;;;4.17;;
13720;SDS011;6932;51.438;5.470;2022-08-21T05:31:33;6.90;;;4.00;;
13720;SDS011;6932;51.438;5.470;2022-08-21T05:33:59;7.03;;;3.90;;
13720;SDS011;6932;51.438;5.470;2022-08-21T05:36:25;6.73;;;4.00;;
13720;SDS011;6932;51.438;5.470;2022-08-21T05:38:50;6.97;;;3.87;;
13720;SDS011;6932;51.438;5.470;2022-08-21T05:41:16;7.17;;;3.80;;
13720;SDS011;6932;51.438;5.470;2022-08-21T05:43:42;7.53;;;3.50;;
13720;SDS011;6932;51.438;5.470;2022-08-21T05:46:08;6.33;;;3.23;;
13720;SDS011;6932;51.438;5.470;2022-08-21T05:48:34;6.20;;;3.20;;
13720;SDS011;6932;51.438;5.470;2022-08-21T05:51:05;7.77;;;3.50;;
13720;SDS011;6932;51.438;5.470;2022-08-21T05:53:37;7.00;;;3.37;;
13720;SDS011;6932;51.438;5.470;2022-08-21T05:56:04;9.33;;;3.30;;
13720;SDS011;6932;51.438;5.470;2022-08-21T05:58:31;8.23;;;2.97;;
13720;SDS011;6932;51.438;5.470;2022-08-21T06:00:59;5.60;;;2.90;;
13720;SDS011;6932;51.438;5.470;2022-08-21T06:03:28;5.83;;;3.00;;
13720;SDS011;6932;51.438;5.470;2022-08-21T06:05:58;7.53;;;3.53;;
13720;SDS011;6932;51.438;5.470;2022-08-21T06:08:25;6.47;;;2.90;;
13720;SDS011;6932;51.438;5.470;2022-08-21T06:10:52;7.30;;;3.27;;
13720;SDS011;6932;51.438;5.470;2022-08-21T06:13:20;5.07;;;3.23;;
13720;SDS011;6932;51.438;5.470;2022-08-21T06:15:47;6.60;;;3.20;;
13720;SDS011;6932;51.438;5.470;2022-08-21T06:18:15;5.97;;;3.00;;
13720;SDS011;6932;51.438;5.470;2022-08-21T06:20:41;6.60;;;3.00;;
13720;SDS011;6932;51.438;5.470;2022-08-21T06:23:08;6.37;;;2.93;;
13720;SDS011;6932;51.438;5.470;2022-08-21T06:25:34;5.30;;;2.77;;
13720;SDS011;6932;51.438;5.470;2022-08-21T06:28:07;7.60;;;3.00;;
13720;SDS011;6932;51.438;5.470;2022-08-21T06:30:35;8.87;;;3.20;;
13720;SDS011;6932;51.438;5.470;2022-08-21T06:33:03;5.50;;;2.60;;
13720;SDS011;6932;51.438;5.470;2022-08-21T06:35:31;5.30;;;2.67;;
13720;SDS011;6932;51.438;5.470;2022-08-21T06:37:57;6.50;;;3.00;;
13720;SDS011;6932;51.438;5.470;2022-08-21T06:40:23;5.03;;;2.67;;
13720;SDS011;6932;51.438;5.470;2022-08-21T06:42:51;5.87;;;2.70;;
13720;SDS011;6932;51.438;5.470;2022-08-21T06:45:17;6.13;;;2.80;;
13720;SDS011;6932;51.438;5.470;2022-08-21T06:47:42;6.87;;;2.80;;
13720;SDS011;6932;51.438;5.470;2022-08-21T06:50:08;4.70;;;2.63;;
13720;SDS011;6932;51.438;5.470;2022-08-21T06:52:35;6.63;;;2.70;;
13720;SDS011;6932;51.438;5.470;2022-08-21T06:55:04;6.03;;;2.30;;
13720;SDS011;6932;51.438;5.470;2022-08-21T06:57:34;6.60;;;2.50;;
13720;SDS011;6932;51.438;5.470;2022-08-21T07:00:01;4.20;;;2.17;;
13720;SDS011;6932;51.438;5.470;2022-08-21T07:02:32;4.50;;;2.20;;
13720;SDS011;6932;51.438;5.470;2022-08-21T07:04:58;4.23;;;2.20;;
13720;SDS011;6932;51.438;5.470;2022-08-21T07:07:24;6.80;;;2.23;;
13720;SDS011;6932;51.438;5.470;2022-08-21T07:09:50;7.37;;;2.13;;
13720;SDS011;6932;51.438;5.470;2022-08-21T07:12:16;5.17;;;2.10;;
13720;SDS011;6932;51.438;5.470;2022-08-21T07:14:41;7.20;;;2.30;;
13720;SDS011;6932;51.438;5.470;2022-08-21T07:17:07;4.77;;;2.10;;
13720;SDS011;6932;51.438;5.470;2022-08-21T07:19:33;8.13;;;2.57;;
13720;SDS011;6932;51.438;5.470;2022-08-21T07:22:01;5.73;;;2.20;;
13720;SDS011;6932;51.438;5.470;2022-08-21T07:24:27;5.97;;;2.00;;
13720;SDS011;6932;51.438;5.470;2022-08-21T07:26:55;5.73;;;2.77;;
13720;SDS011;6932;51.438;5.470;2022-08-21T07:29:23;4.57;;;2.00;;
13720;SDS011;6932;51.438;5.470;2022-08-21T07:31:49;7.57;;;2.73;;
13720;SDS011;6932;51.438;5.470;2022-08-21T07:34:15;7.70;;;2.50;;
13720;SDS011;6932;51.438;5.470;2022-08-21T07:36:41;5.53;;;2.10;;
13720;SDS011;6932;51.438;5.470;2022-08-21T07:39:08;7.37;;;2.43;;
13720;SDS011;6932;51.438;5.470;2022-08-21T07:41:33;7.17;;;2.60;;
13720;SDS011;6932;51.438;5.470;2022-08-21T07:44:00;5.03;;;2.20;;
13720;SDS011;6932;51.438;5.470;2022-08-21T07:46:26;5.47;;;2.10;;
13720;SDS011;6932;51.438;5.470;2022-08-21T07:48:53;6.73;;;2.83;;
13720;SDS011;6932;51.438;5.470;2022-08-21T07:51:20;5.53;;;2.43;;
13720;SDS011;6932;51.438;5.470;2022-08-21T07:53:53;7.13;;;2.47;;
13720;SDS011;6932;51.438;5.470;2022-08-21T07:56:21;7.03;;;2.35;;
13720;SDS011;6932;51.438;5.470;2022-08-21T07:58:49;5.78;;;2.20;;
13720;SDS011;6932;51.438;5.470;2022-08-21T08:01:15;4.30;;;2.15;;
13720;SDS011;6932;51.438;5.470;2022-08-21T08:03:41;5.90;;;2.17;;
13720;SDS011;6932;51.438;5.470;2022-08-21T08:06:07;5.20;;;1.80;;
13720;SDS011;6932;51.438;5.470;2022-08-21T08:08:37;6.28;;;2.08;;
13720;SDS011;6932;51.438;5.470;2022-08-21T08:11:05;5.80;;;2.10;;
13720;SDS011;6932;51.438;5.470;2022-08-21T08:13:37;6.80;;;2.10;;
13720;SDS011;6932;51.438;5.470;2022-08-21T08:16:09;6.05;;;2.13;;
13720;SDS011;6932;51.438;5.470;2022-08-21T08:18:35;6.53;;;2.47;;
13720;SDS011;6932;51.438;5.470;2022-08-21T08:21:02;7.35;;;2.20;;
13720;SDS011;6932;51.438;5.470;2022-08-21T08:23:29;6.75;;;2.20;;
13720;SDS011;6932;51.438;5.470;2022-08-21T08:25:57;7.07;;;2.20;;
13720;SDS011;6932;51.438;5.470;2022-08-21T08:28:23;10.57;;;2.60;;
13720;SDS011;6932;51.438;5.470;2022-08-21T08:30:50;5.47;;;2.20;;
13720;SDS011;6932;51.438;5.470;2022-08-21T08:33:17;5.25;;;2.25;;
13720;SDS011;6932;51.438;5.470;2022-08-21T08:35:44;6.22;;;1.80;;
13720;SDS011;6932;51.438;5.470;2022-08-21T08:38:13;5.25;;;2.05;;
13720;SDS011;6932;51.438;5.470;2022-08-21T08:40:45;6.07;;;1.98;;
13720;SDS011;6932;51.438;5.470;2022-08-21T08:43:13;8.23;;;2.13;;
13720;SDS011;6932;51.438;5.470;2022-08-21T08:45:40;5.85;;;2.05;;
13720;SDS011;6932;51.438;5.470;2022-08-21T08:48:14;6.43;;;2.30;;
13720;SDS011;6932;51.438;5.470;2022-08-21T08:51:04;9.60;;;2.28;;
13720;SDS011;6932;51.438;5.470;2022-08-21T08:53:58;5.97;;;2.17;;
13720;SDS011;6932;51.438;5.470;2022-08-21T08:56:31;6.28;;;2.10;;
13720;SDS011;6932;51.438;5.470;2022-08-21T08:59:11;6.15;;;2.30;;
13720;SDS011;6932;51.438;5.470;2022-08-21T09:01:44;5.82;;;2.22;;
13720;SDS011;6932;51.438;5.470;2022-08-21T09:04:11;7.20;;;2.45;;
13720;SDS011;6932;51.438;5.470;2022-08-21T09:18:31;4.47;;;1.80;;
13720;SDS011;6932;51.438;5.470;2022-08-21T09:24:21;6.80;;;2.00;;
13720;SDS011;6932;51.438;5.470;2022-08-21T09:27:11;5.60;;;1.75;;
13720;SDS011;6932;51.438;5.470;2022-08-21T09:29:44;4.05;;;1.70;;
13720;SDS011;6932;51.438;5.470;2022-08-21T09:32:19;6.68;;;1.80;;
13720;SDS011;6932;51.438;5.470;2022-08-21T09:35:10;8.40;;;1.90;;
13720;SDS011;6932;51.438;5.470;2022-08-21T09:37:56;5.75;;;1.73;;
13720;SDS011;6932;51.438;5.470;2022-08-21T09:40:33;4.72;;;1.60;;
13720;SDS011;6932;51.438;5.470;2022-08-21T09:45:37;4.13;;;1.50;;
13720;SDS011;6932;51.438;5.470;2022-08-21T09:50:49;5.65;;;1.60;;
13720;SDS011;6932;51.438;5.470;2022-08-21T09:53:24;5.18;;;1.60;;
13720;SDS011;6932;51.438;5.470;2022-08-21T09:56:03;6.82;;;1.70;;
13720;SDS011;6932;51.438;5.470;2022-08-21T09:59:12;6.75;;;1.65;;
13720;SDS011;6932;51.438;5.470;2022-08-21T10:01:49;3.67;;;1.50;;
13720;SDS011;6932;51.438;5.470;2022-08-21T10:04:29;4.20;;;1.50;;
13720;SDS011;6932;51.438;5.470;2022-08-21T10:07:06;3.90;;;1.40;;
13720;SDS011;6932;51.438;5.470;2022-08-21T10:09:39;5.07;;;1.83;;
13720;SDS011;6932;51.438;5.470;2022-08-21T10:12:10;2.72;;;1.25;;
13720;SDS011;6932;51.438;5.470;2022-08-21T10:15:13;4.97;;;1.55;;
13720;SDS011;6932;51.438;5.470;2022-08-21T10:17:44;3.90;;;1.45;;
13720;SDS011;6932;51.438;5.470;2022-08-21T10:23:56;5.78;;;1.60;;
13720;SDS011;6932;51.438;5.470;2022-08-21T10:30:03;4.13;;;1.60;;
13720;SDS011;6932;51.438;5.470;2022-08-21T10:35:44;3.60;;;1.20;;
13720;SDS011;6932;51.438;5.470;2022-08-21T10:44:49;4.72;;;1.73;;
13720;SDS011;6932;51.438;5.470;2022-08-21T10:47:30;4.78;;;1.50;;
13720;SDS011;6932;51.438;5.470;2022-08-21T10:56:22;3.63;;;1.60;;
13720;SDS011;6932;51.438;5.470;2022-08-21T11:04:51;4.15;;;1.80;;
13720;SDS011;6932;51.438;5.470;2022-08-21T11:07:37;5.75;;;2.00;;
13720;SDS011;6932;51.438;5.470;2022-08-21T11:10:18;3.03;;;1.80;;
13720;SDS011;6932;51.438;5.470;2022-08-21T11:12:56;2.92;;;1.80;;
13720;SDS011;6932;51.438;5.470;2022-08-21T11:15:36;3.42;;;1.80;;
13720;SDS011;6932;51.438;5.470;2022-08-21T11:18:26;5.80;;;2.03;;
13720;SDS011;6932;51.438;5.470;2022-08-21T11:24:12;3.53;;;2.17;;
13720;SDS011;6932;51.438;5.470;2022-08-21T11:26:52;4.88;;;2.47;;
13720;SDS011;6932;51.438;5.470;2022-08-21T11:29:54;6.53;;;2.20;;
13720;SDS011;6932;51.438;5.470;2022-08-21T11:38:32;3.40;;;1.80;;
13720;SDS011;6932;51.438;5.470;2022-08-21T11:43:55;6.80;;;2.25;;
13720;SDS011;6932;51.438;5.470;2022-08-21T11:46:53;5.05;;;2.30;;
13720;SDS011;6932;51.438;5.470;2022-08-21T11:50:12;2.47;;;1.60;;
13720;SDS011;6932;51.438;5.470;2022-08-21T11:52:49;3.75;;;1.70;;
13720;SDS011;6932;51.438;5.470;2022-08-21T12:01:19;3.53;;;1.65;;
13720;SDS011;6932;51.438;5.470;2022-08-21T12:04:17;6.65;;;2.35;;
13720;SDS011;6932;51.438;5.470;2022-08-21T12:06:52;3.88;;;1.98;;
13720;SDS011;6932;51.438;5.470;2022-08-21T12:11:59;5.40;;;2.10;;
13720;SDS011;6932;51.438;5.470;2022-08-21T12:14:49;4.07;;;1.98;;
13720;SDS011;6932;51.438;5.470;2022-08-21T12:17:35;4.13;;;1.90;;
13720;SDS011;6932;51.438;5.470;2022-08-21T12:23:25;5.85;;;2.13;;
13720;SDS011;6932;51.438;5.470;2022-08-21T12:25:46;4.00;;;1.90;;
13720;SDS011;6932;51.438;5.470;2022-08-21T12:28:42;3.05;;;1.90;;
13720;SDS011;6932;51.438;5.470;2022-08-21T12:31:19;4.78;;;2.00;;
13720;SDS011;6932;51.438;5.470;2022-08-21T12:33:55;3.17;;;1.80;;
13720;SDS011;6932;51.438;5.470;2022-08-21T12:36:38;4.78;;;2.20;;
13720;SDS011;6932;51.438;5.470;2022-08-21T12:39:29;4.25;;;1.80;;
13720;SDS011;6932;51.438;5.470;2022-08-21T12:42:05;3.78;;;2.20;;
13720;SDS011;6932;51.438;5.470;2022-08-21T12:45:00;3.33;;;1.98;;
13720;SDS011;6932;51.438;5.470;2022-08-21T12:50:45;3.67;;;2.00;;
13720;SDS011;6932;51.438;5.470;2022-08-21T12:53:59;4.50;;;1.98;;
13720;SDS011;6932;51.438;5.470;2022-08-21T12:56:27;5.85;;;2.20;;
13720;SDS011;6932;51.438;5.470;2022-08-21T12:59:01;4.75;;;2.40;;
13720;SDS011;6932;51.438;5.470;2022-08-21T13:01:43;4.85;;;2.15;;
13720;SDS011;6932;51.438;5.470;2022-08-21T13:04:18;3.95;;;1.90;;
13720;SDS011;6932;51.438;5.470;2022-08-21T13:06:50;5.47;;;2.38;;
13720;SDS011;6932;51.438;5.470;2022-08-21T13:09:24;5.72;;;2.22;;
13720;SDS011;6932;51.438;5.470;2022-08-21T13:11:54;5.28;;;2.20;;
13720;SDS011;6932;51.438;5.470;2022-08-21T13:14:30;5.90;;;2.30;;
13720;SDS011;6932;51.438;5.470;2022-08-21T13:17:03;7.35;;;2.50;;
13720;SDS011;6932;51.438;5.470;2022-08-21T13:19:32;3.95;;;2.13;;
13720;SDS011;6932;51.438;5.470;2022-08-21T13:21:59;5.85;;;2.45;;
13720;SDS011;6932;51.438;5.470;2022-08-21T13:24:31;6.15;;;2.88;;
13720;SDS011;6932;51.438;5.470;2022-08-21T13:27:00;5.72;;;2.60;;
13720;SDS011;6932;51.438;5.470;2022-08-21T13:29:28;4.95;;;2.40;;
13720;SDS011;6932;51.438;5.470;2022-08-21T13:32:02;6.03;;;2.40;;
13720;SDS011;6932;51.438;5.470;2022-08-21T13:34:35;5.22;;;2.55;;
13720;SDS011;6932;51.438;5.470;2022-08-21T13:37:04;6.20;;;2.75;;
13720;SDS011;6932;51.438;5.470;2022-08-21T13:39:33;7.57;;;2.80;;
13720;SDS011;6932;51.438;5.470;2022-08-21T13:42:00;5.72;;;2.75;;
13720;SDS011;6932;51.438;5.470;2022-08-21T13:44:33;7.03;;;3.10;;
13720;SDS011;6932;51.438;5.470;2022-08-21T13:47:05;6.57;;;2.92;;
13720;SDS011;6932;51.438;5.470;2022-08-21T13:49:36;5.47;;;2.97;;
13720;SDS011;6932;51.438;5.470;2022-08-21T13:52:20;6.07;;;3.10;;
13720;SDS011;6932;51.438;5.470;2022-08-21T13:54:56;7.18;;;3.38;;
13720;SDS011;6932;51.438;5.470;2022-08-21T13:57:32;4.85;;;2.80;;
13720;SDS011;6932;51.438;5.470;2022-08-21T14:00:13;5.55;;;3.08;;
13720;SDS011;6932;51.438;5.470;2022-08-21T14:02:43;7.00;;;2.80;;
13720;SDS011;6932;51.438;5.470;2022-08-21T14:05:19;6.43;;;2.90;;
13720;SDS011;6932;51.438;5.470;2022-08-21T14:07:58;5.10;;;2.78;;
13720;SDS011;6932;51.438;5.470;2022-08-21T14:10:31;8.50;;;3.35;;
13720;SDS011;6932;51.438;5.470;2022-08-21T14:13:02;6.45;;;3.22;;
13720;SDS011;6932;51.438;5.470;2022-08-21T14:15:32;8.50;;;3.45;;
13720;SDS011;6932;51.438;5.470;2022-08-21T14:18:08;8.18;;;3.50;;
13720;SDS011;6932;51.438;5.470;2022-08-21T14:20:42;5.35;;;3.20;;
13720;SDS011;6932;51.438;5.470;2022-08-21T14:23:08;6.25;;;3.10;;
13720;SDS011;6932;51.438;5.470;2022-08-21T14:30:51;7.97;;;3.45;;
13720;SDS011;6932;51.438;5.470;2022-08-21T14:33:27;5.20;;;3.17;;
13720;SDS011;6932;51.438;5.470;2022-08-21T14:35:56;5.55;;;3.20;;
13720;SDS011;6932;51.438;5.470;2022-08-21T14:38:23;6.28;;;3.40;;
13720;SDS011;6932;51.438;5.470;2022-08-21T14:40:56;6.25;;;3.30;;
13720;SDS011;6932;51.438;5.470;2022-08-21T14:43:28;8.45;;;3.80;;
13720;SDS011;6932;51.438;5.470;2022-08-21T14:45:55;8.05;;;3.42;;
13720;SDS011;6932;51.438;5.470;2022-08-21T14:48:21;6.35;;;3.60;;
13720;SDS011;6932;51.438;5.470;2022-08-21T14:50:47;5.93;;;3.40;;
13720;SDS011;6932;51.438;5.470;2022-08-21T14:53:13;7.05;;;3.28;;
13720;SDS011;6932;51.438;5.470;2022-08-21T14:55:39;5.05;;;3.38;;
13720;SDS011;6932;51.438;5.470;2022-08-21T14:58:24;7.63;;;3.00;;
13720;SDS011;6932;51.438;5.470;2022-08-21T15:00:51;5.68;;;2.40;;
13720;SDS011;6932;51.438;5.470;2022-08-21T15:03:20;5.40;;;2.50;;
13720;SDS011;6932;51.438;5.470;2022-08-21T15:05:46;5.35;;;2.67;;
13720;SDS011;6932;51.438;5.470;2022-08-21T15:08:13;12.05;;;3.00;;
13720;SDS011;6932;51.438;5.470;2022-08-21T15:10:39;6.00;;;3.05;;
13720;SDS011;6932;51.438;5.470;2022-08-21T15:13:05;4.55;;;2.67;;
13720;SDS011;6932;51.438;5.470;2022-08-21T15:15:34;6.47;;;2.30;;
13720;SDS011;6932;51.438;5.470;2022-08-21T15:18:06;6.20;;;2.17;;
13720;SDS011;6932;51.438;5.470;2022-08-21T15:20:32;5.05;;;2.42;;
13720;SDS011;6932;51.438;5.470;2022-08-21T15:23:00;6.60;;;2.60;;
13720;SDS011;6932;51.438;5.470;2022-08-21T15:25:26;7.18;;;2.95;;
13720;SDS011;6932;51.438;5.470;2022-08-21T15:27:52;5.97;;;2.92;;
13720;SDS011;6932;51.438;5.470;2022-08-21T15:30:18;5.85;;;2.90;;
13720;SDS011;6932;51.438;5.470;2022-08-21T15:32:44;7.07;;;3.10;;
13720;SDS011;6932;51.438;5.470;2022-08-21T15:35:11;5.43;;;2.80;;
13720;SDS011;6932;51.438;5.470;2022-08-21T15:37:37;6.55;;;3.05;;
13720;SDS011;6932;51.438;5.470;2022-08-21T15:40:04;6.72;;;2.83;;
13720;SDS011;6932;51.438;5.470;2022-08-21T15:42:32;6.30;;;2.65;;
13720;SDS011;6932;51.438;5.470;2022-08-21T15:44:59;8.07;;;3.33;;
13720;SDS011;6932;51.438;5.470;2022-08-21T15:47:28;6.30;;;2.97;;
13720;SDS011;6932;51.438;5.470;2022-08-21T15:49:58;6.22;;;2.67;;
13720;SDS011;6932;51.438;5.470;2022-08-21T15:52:24;7.93;;;2.58;;
13720;SDS011;6932;51.438;5.470;2022-08-21T15:54:51;5.75;;;2.40;;
13720;SDS011;6932;51.438;5.470;2022-08-21T15:57:18;5.93;;;2.58;;
13720;SDS011;6932;51.438;5.470;2022-08-21T15:59:49;6.50;;;2.72;;
13720;SDS011;6932;51.438;5.470;2022-08-21T16:02:21;7.43;;;2.50;;
13720;SDS011;6932;51.438;5.470;2022-08-21T16:04:55;3.90;;;2.13;;
13720;SDS011;6932;51.438;5.470;2022-08-21T16:07:22;5.30;;;2.30;;
13720;SDS011;6932;51.438;5.470;2022-08-21T16:09:48;5.32;;;2.08;;
13720;SDS011;6932;51.438;5.470;2022-08-21T16:12:44;5.82;;;2.08;;
13720;SDS011;6932;51.438;5.470;2022-08-21T16:15:04;6.95;;;2.00;;
13720;SDS011;6932;51.438;5.470;2022-08-21T16:17:36;5.53;;;2.10;;
13720;SDS011;6932;51.438;5.470;2022-08-21T16:20:06;5.65;;;2.17;;
13720;SDS011;6932;51.438;5.470;2022-08-21T16:22:37;5.95;;;2.30;;
13720;SDS011;6932;51.438;5.470;2022-08-21T16:25:03;4.25;;;1.77;;
13720;SDS011;6932;51.438;5.470;2022-08-21T16:27:31;5.57;;;1.80;;
13720;SDS011;6932;51.438;5.470;2022-08-21T16:29:58;5.40;;;1.90;;
13720;SDS011;6932;51.438;5.470;2022-08-21T16:32:25;4.63;;;2.05;;
13720;SDS011;6932;51.438;5.470;2022-08-21T16:34:51;4.00;;;1.60;;
13720;SDS011;6932;51.438;5.470;2022-08-21T16:37:17;4.93;;;2.20;;
13720;SDS011;6932;51.438;5.470;2022-08-21T16:39:43;4.85;;;1.80;;
13720;SDS011;6932;51.438;5.470;2022-08-21T16:42:14;3.97;;;1.52;;
13720;SDS011;6932;51.438;5.470;2022-08-21T16:44:50;5.28;;;1.85;;